Overview Statistics Trail Chart Weather Telemetry Raw packets
 

This is the latest recevied weather packets stored in our database for station/object Krozingen. If no packets are shown the sender has not sent any weather packets the latest 10 day(s).

<< 1 2 3 4 5 6 >>
Time Temp. Humidity Pressure Rain* Wind** Luminosity Snow
1788485530 17.78° C 75% 1021.1 hPa 0 mm - - -
1788483730 17.78° C 74% 1021.4 hPa 0 mm - - -
1788481931 18.89° C 71% 1021.6 hPa 0 mm - - -
1788480131 20° C 64% 1021.7 hPa 0 mm - - -
1788478331 21.11° C 62% 1021.5 hPa 0 mm - - -
1788476531 21.67° C 61% 1021.7 hPa 0 mm - - -
1788474731 21.67° C 59% 1021.7 hPa 0 mm - - -
1788472931 21.67° C 59% 1021.7 hPa 0 mm - - -
1788471131 22.22° C 58% 1021.8 hPa 0 mm - - -
1788469331 22.22° C 58% 1022 hPa 0 mm - - -
1788467531 22.78° C 57% 1021.9 hPa 0 mm - - -
1788465730 22.78° C 57% 1021.8 hPa 0 mm - - -
1788463931 22.78° C 57% 1021.8 hPa 0 mm - - -
1788462131 23.33° C 57% 1021.6 hPa 0 mm - - -
1788460330 24.44° C 54% 1021.2 hPa 0 mm - - -
1788458530 25.56° C 51% 1021 hPa 0 mm - - -
1788456731 26.11° C 48% 1020.8 hPa 0 mm - - -
1788454941 27.78° C 45% 1020.7 hPa 0 mm - - -
1788453130 28.33° C 44% 1020.7 hPa 0 mm - - -
1788451331 28.89° C 42% 1020.8 hPa 0 mm - - -
1788449530 28.89° C 43% 1020.9 hPa 0 mm - - -
1788447730 29.44° C 41% 1021.1 hPa 0 mm - - -
1788445930 28.89° C 39% 1021.3 hPa 0 mm - - -
1788444130 28.33° C 41% 1021.3 hPa 0 mm - - -
1788442331 27.78° C 39% 1021.4 hPa 0 mm - - -

* Rain since midnight (hover to see other rain measurements)
** Current wind speed in m/s (hover to see current wind gust speed)